Time;durP1;ratioP1;P1;durP2;ratioP2;P2;SDS_P1;SDS_P2;PMS_P1;PMS_P2;Temp;Humidity;BMP_temperature;BMP_pressure;BME280_temperature;BME280_humidity;BME280_pressure;Samples;Min_cycle;Max_cycle;Signal;HPM_P1;HPM_P2
2024/01/24 00:02:00;;;;;;;;;;;;;;;3.49;65.76;100478.53;4410192;32;32676;-83
2024/01/24 00:04:28;;;;;;;;;;;;;;;3.50;65.82;100462.34;4423544;32;33480;-83
2024/01/24 00:06:55;;;;;;;;;;;;;;;3.47;65.78;100467.28;4435199;32;33953;-83
2024/01/24 00:09:24;;;;;;;;;;;;;;;3.49;65.83;100470.84;4436444;32;34370;-84
2024/01/24 00:11:51;;;;;;;;;;;;;;;3.55;66.01;100479.75;4436103;32;33483;-83
2024/01/24 00:14:19;;;;;;;;;;;;;;;3.47;66.37;100487.78;4435704;32;34208;-84
2024/01/24 00:16:46;;;;;;;;;;;;;;;3.64;66.03;100495.75;4436260;32;34078;-84
2024/01/24 00:19:13;;;;;;;;;;;;;;;3.58;66.48;100495.34;4436022;32;34082;-83
2024/01/24 00:21:41;;;;;;;;;;;;;;;3.68;66.36;100485.66;4429011;32;34276;-85
2024/01/24 00:24:08;;;;;;;;;;;;;;;3.55;66.74;100491.69;4430735;32;32885;-84
2024/01/24 00:26:38;;;;;;;;;;;;;;;3.58;66.74;100481.66;4423504;32;34248;-83
2024/01/24 00:29:06;;;;;;;;;;;;;;;3.73;66.25;100480.00;4434995;32;33856;-85
2024/01/24 00:31:33;;;;;;;;;;;;;;;3.64;66.34;100487.16;4433099;32;34055;-86
2024/01/24 00:34:00;;;;;;;;;;;;;;;3.69;66.15;100485.75;4426714;32;35059;-82
2024/01/24 00:36:28;;;;;;;;;;;;;;;3.76;65.94;100481.88;4436102;32;34333;-83
2024/01/24 00:38:55;;;;;;;;;;;;;;;3.71;66.05;100473.88;4435932;32;33993;-84
2024/01/24 00:41:22;;;;;;;;;;;;;;;3.71;66.01;100466.19;4435718;32;34209;-86
2024/01/24 00:43:49;;;;;;;;;;;;;;;3.52;66.54;100460.75;4433024;32;34181;-83
2024/01/24 00:46:17;;;;;;;;;;;;;;;3.56;66.33;100461.06;4433767;32;34066;-83
2024/01/24 00:48:44;;;;;;;;;;;;;;;3.71;65.89;100473.00;4435272;32;33942;-83
2024/01/24 00:51:11;;;;;;;;;;;;;;;3.69;65.86;100472.06;4435767;32;33058;-81
2024/01/24 00:53:39;;;;;;;;;;;;;;;3.87;64.99;100468.91;4435895;32;33976;-82
2024/01/24 00:56:07;;;;;;;;;;;;;;;3.89;64.66;100469.88;4420491;32;35194;-86
2024/01/24 00:58:34;;;;;;;;;;;;;;;3.78;64.40;100465.78;4433999;32;34054;-83
2024/01/24 01:01:01;;;;;;;;;;;;;;;3.74;64.16;100474.09;4421806;32;34243;-85
2024/01/24 01:03:29;;;;;;;;;;;;;;;3.69;64.06;100480.63;4421627;32;34169;-83
2024/01/24 01:05:56;;;;;;;;;;;;;;;3.71;63.49;100467.87;4431886;32;34190;-85
2024/01/24 01:08:23;;;;;;;;;;;;;;;3.60;63.83;100463.00;4429945;32;34348;-85
2024/01/24 01:10:51;;;;;;;;;;;;;;;3.58;63.23;100461.13;4421573;32;33756;-84
2024/01/24 01:13:18;;;;;;;;;;;;;;;3.66;62.99;100439.41;4435152;32;34980;-82
2024/01/24 01:15:45;;;;;;;;;;;;;;;3.55;62.97;100445.56;4434937;32;34138;-86
2024/01/24 01:18:13;;;;;;;;;;;;;;;3.55;62.71;100436.19;4435130;32;34343;-85
2024/01/24 01:20:40;;;;;;;;;;;;;;;3.54;62.56;100438.66;4435536;32;33384;-84
2024/01/24 01:23:07;;;;;;;;;;;;;;;3.47;62.75;100428.81;4435244;32;33996;-84
2024/01/24 01:25:35;;;;;;;;;;;;;;;3.48;62.96;100412.63;4435081;32;35241;-84
2024/01/24 01:28:02;;;;;;;;;;;;;;;3.29;63.22;100408.94;4435197;32;34891;-82
2024/01/24 01:30:30;;;;;;;;;;;;;;;3.36;63.15;100410.22;4434651;32;33313;-84
2024/01/24 01:32:58;;;;;;;;;;;;;;;3.44;62.77;100392.75;4435058;32;35049;-86
2024/01/24 01:35:25;;;;;;;;;;;;;;;3.13;63.87;100403.69;4434962;32;34254;-84
2024/01/24 01:37:53;;;;;;;;;;;;;;;3.36;63.44;100408.53;4435230;32;34718;-86
2024/01/24 01:40:20;;;;;;;;;;;;;;;3.44;63.40;100403.88;4436496;32;34329;-84
2024/01/24 01:42:47;;;;;;;;;;;;;;;3.47;63.25;100405.75;4437457;32;34136;-85
2024/01/24 01:45:14;;;;;;;;;;;;;;;3.54;63.15;100407.88;4420887;32;34116;-82
2024/01/24 01:47:43;;;;;;;;;;;;;;;3.45;63.76;100397.97;4423052;32;34822;-86
2024/01/24 01:50:10;;;;;;;;;;;;;;;3.53;63.80;100380.50;4409954;32;32324;-82
2024/01/24 01:52:38;;;;;;;;;;;;;;;3.59;63.59;100370.56;4420017;32;34423;-83
2024/01/24 01:55:06;;;;;;;;;;;;;;;3.69;63.42;100367.78;4420410;32;34298;-82
2024/01/24 01:57:33;;;;;;;;;;;;;;;3.66;63.45;100365.03;4413320;32;34400;-83
2024/01/24 02:00:00;;;;;;;;;;;;;;;3.61;63.85;100358.75;4418285;32;34372;-82
2024/01/24 02:02:30;;;;;;;;;;;;;;;3.58;64.58;100366.25;4411086;32;33513;-84
2024/01/24 02:04:57;;;;;;;;;;;;;;;3.60;64.92;100365.56;4421490;32;34284;-87
2024/01/24 02:07:25;;;;;;;;;;;;;;;3.56;65.26;100365.25;4424323;32;34370;-84
2024/01/24 02:09:52;;;;;;;;;;;;;;;3.62;65.05;100375.91;4425871;32;33398;-83
2024/01/24 02:12:20;;;;;;;;;;;;;;;3.65;65.04;100376.09;4427087;32;33829;-84
2024/01/24 02:14:47;;;;;;;;;;;;;;;3.63;65.26;100377.66;4433449;32;34444;-84
2024/01/24 02:17:14;;;;;;;;;;;;;;;3.64;65.20;100385.47;4433175;32;34950;-83
2024/01/24 02:19:42;;;;;;;;;;;;;;;3.61;65.15;100374.12;4431824;32;33997;-84
2024/01/24 02:22:09;;;;;;;;;;;;;;;3.69;64.84;100357.53;4428834;32;34323;-84
2024/01/24 02:24:36;;;;;;;;;;;;;;;3.58;65.16;100358.56;4408030;32;33504;-85
2024/01/24 02:27:04;;;;;;;;;;;;;;;3.48;65.89;100361.34;4410669;32;33962;-84
2024/01/24 02:29:31;;;;;;;;;;;;;;;3.45;65.88;100361.16;4410171;32;33538;-82
2024/01/24 02:31:58;;;;;;;;;;;;;;;3.58;65.29;100361.12;4428485;32;34673;-84
2024/01/24 02:34:25;;;;;;;;;;;;;;;3.66;64.86;100349.63;4435377;32;34375;-81
2024/01/24 02:36:53;;;;;;;;;;;;;;;3.54;65.14;100346.34;4424949;32;34061;-81
2024/01/24 02:39:21;;;;;;;;;;;;;;;3.47;65.10;100334.84;4426525;32;32878;-83
2024/01/24 02:41:48;;;;;;;;;;;;;;;3.28;65.09;100332.84;4407481;32;34116;-82
2024/01/24 02:44:15;;;;;;;;;;;;;;;2.90;66.43;100339.09;4411509;32;34283;-85
2024/01/24 02:46:43;;;;;;;;;;;;;;;3.07;66.09;100331.53;4435694;32;34159;-85
2024/01/24 02:49:10;;;;;;;;;;;;;;;3.06;66.28;100335.78;4430573;32;33574;-82
2024/01/24 02:51:38;;;;;;;;;;;;;;;3.15;65.92;100328.69;4423888;32;34320;-82
2024/01/24 02:54:05;;;;;;;;;;;;;;;3.36;65.31;100344.44;4409825;32;34100;-83
2024/01/24 02:56:33;;;;;;;;;;;;;;;3.50;64.70;100334.16;4436143;32;34126;-83
2024/01/24 02:59:01;;;;;;;;;;;;;;;3.58;64.30;100328.69;4434715;32;33970;-84
2024/01/24 03:01:28;;;;;;;;;;;;;;;3.38;64.87;100340.31;4435760;32;34259;-83
2024/01/24 03:03:55;;;;;;;;;;;;;;;3.32;65.28;100339.94;4426573;32;33981;-85
2024/01/24 03:06:23;;;;;;;;;;;;;;;3.54;64.45;100325.84;4416834;32;33822;-84
2024/01/24 03:08:51;;;;;;;;;;;;;;;3.53;64.51;100316.38;4427946;32;30772;-85
2024/01/24 03:11:18;;;;;;;;;;;;;;;3.66;64.17;100316.31;4400012;32;34893;-84
2024/01/24 03:13:46;;;;;;;;;;;;;;;3.63;64.14;100311.00;4418819;32;35094;-84
2024/01/24 03:16:13;;;;;;;;;;;;;;;3.54;64.16;100300.19;4416995;32;33999;-82
2024/01/24 03:18:40;;;;;;;;;;;;;;;3.48;64.28;100295.59;4428328;32;32171;-81
2024/01/24 03:21:09;;;;;;;;;;;;;;;3.42;64.52;100283.31;4422643;32;32876;-84
2024/01/24 03:23:40;;;;;;;;;;;;;;;3.56;64.13;100275.53;4436358;32;34183;-83
2024/01/24 03:26:07;;;;;;;;;;;;;;;3.59;63.92;100275.72;4436440;32;34896;-86
2024/01/24 03:28:35;;;;;;;;;;;;;;;3.64;63.77;100267.50;4409847;32;33358;-84
2024/01/24 03:31:02;;;;;;;;;;;;;;;3.59;63.91;100270.56;4422368;32;34316;-83
2024/01/24 03:33:29;;;;;;;;;;;;;;;3.65;63.54;100251.31;4436664;32;35256;-84
2024/01/24 03:35:57;;;;;;;;;;;;;;;3.70;63.32;100254.13;4435471;32;35236;-84
2024/01/24 03:38:24;;;;;;;;;;;;;;;3.57;63.45;100250.00;4422230;32;33408;-85
2024/01/24 03:40:51;;;;;;;;;;;;;;;3.49;63.85;100237.53;4436582;32;34476;-84
2024/01/24 03:43:19;;;;;;;;;;;;;;;3.56;63.42;100234.50;4422500;32;34037;-84
2024/01/24 03:45:46;;;;;;;;;;;;;;;3.58;63.35;100235.47;4436620;32;33948;-85
2024/01/24 03:48:13;;;;;;;;;;;;;;;3.47;63.71;100241.66;4436751;32;33956;-84
2024/01/24 03:50:41;;;;;;;;;;;;;;;3.50;63.64;100257.25;4436081;32;34419;-83
2024/01/24 03:53:08;;;;;;;;;;;;;;;3.48;63.40;100246.87;4432012;32;36044;-85
2024/01/24 03:55:35;;;;;;;;;;;;;;;3.44;63.68;100251.75;4427268;32;34392;-82
2024/01/24 03:58:03;;;;;;;;;;;;;;;3.39;63.87;100248.91;4424605;32;32042;-82
2024/01/24 04:00:30;;;;;;;;;;;;;;;3.08;64.87;100251.34;4416204;32;33000;-82
2024/01/24 04:02:57;;;;;;;;;;;;;;;3.07;65.79;100247.00;4416688;32;35273;-83
2024/01/24 04:05:25;;;;;;;;;;;;;;;3.13;65.65;100247.37;4416525;32;33178;-82
2024/01/24 04:07:52;;;;;;;;;;;;;;;3.29;66.25;100244.03;4402155;32;32158;-82
2024/01/24 04:10:19;;;;;;;;;;;;;;;3.20;66.67;100241.81;4426144;32;32764;-82
2024/01/24 04:12:47;;;;;;;;;;;;;;;3.38;66.08;100240.34;4421018;32;34414;-83
2024/01/24 04:15:14;;;;;;;;;;;;;;;3.28;66.74;100238.03;4417208;32;32636;-82
2024/01/24 04:17:43;;;;;;;;;;;;;;;3.20;67.25;100246.06;4416838;32;32969;-82
2024/01/24 04:20:11;;;;;;;;;;;;;;;3.34;67.18;100248.66;4430225;32;33463;-84
2024/01/24 04:22:38;;;;;;;;;;;;;;;3.22;67.74;100240.25;4436271;32;34377;-84
2024/01/24 04:25:05;;;;;;;;;;;;;;;3.28;67.94;100243.16;4421861;32;35231;-83
2024/01/24 04:27:32;;;;;;;;;;;;;;;3.49;67.28;100234.97;4436004;32;33046;-84
2024/01/24 04:30:00;;;;;;;;;;;;;;;3.58;66.93;100220.09;4436001;32;34260;-84
2024/01/24 04:32:27;;;;;;;;;;;;;;;3.33;67.64;100223.81;4436358;32;34384;-84
2024/01/24 04:34:54;;;;;;;;;;;;;;;3.61;66.98;100230.53;4435812;32;34335;-84
2024/01/24 04:37:24;;;;;;;;;;;;;;;3.71;66.75;100237.94;4432682;32;33534;-83
2024/01/24 04:39:52;;;;;;;;;;;;;;;3.82;66.42;100234.31;4430646;32;33991;-84
2024/01/24 04:42:19;;;;;;;;;;;;;;;3.74;66.66;100230.44;4434187;32;35382;-84
2024/01/24 04:44:46;;;;;;;;;;;;;;;4.00;65.83;100228.44;4435045;32;35056;-83
2024/01/24 04:47:14;;;;;;;;;;;;;;;3.86;66.30;100231.16;4434910;32;34066;-84
2024/01/24 04:49:41;;;;;;;;;;;;;;;3.86;66.49;100208.06;4420681;32;32800;-84
2024/01/24 04:52:13;;;;;;;;;;;;;;;3.91;66.43;100213.44;4421544;32;35130;-83
2024/01/24 04:54:41;;;;;;;;;;;;;;;4.07;66.03;100216.03;4422013;32;33538;-84
2024/01/24 04:57:09;;;;;;;;;;;;;;;4.10;65.97;100213.66;4434118;32;33631;-85
2024/01/24 04:59:36;;;;;;;;;;;;;;;4.15;65.84;100207.09;4421865;32;33813;-82
2024/01/24 05:02:19;;;;;;;;;;;;;;;4.18;65.93;100208.06;4427138;32;34909;-83
2024/01/24 05:04:47;;;;;;;;;;;;;;;4.18;66.05;100203.81;4430231;32;33962;-83
2024/01/24 05:07:16;;;;;;;;;;;;;;;4.21;66.17;100203.97;4417611;32;34327;-82
2024/01/24 05:09:44;;;;;;;;;;;;;;;4.15;66.28;100198.50;4425705;32;35003;-84
2024/01/24 05:12:12;;;;;;;;;;;;;;;4.16;66.30;100197.69;4431856;32;34365;-85
2024/01/24 05:14:40;;;;;;;;;;;;;;;4.04;66.89;100197.03;4435889;32;34528;-84
2024/01/24 05:17:07;;;;;;;;;;;;;;;3.99;67.13;100173.69;4435806;32;33252;-82
2024/01/24 05:19:35;;;;;;;;;;;;;;;4.13;66.96;100164.19;4423319;32;34313;-86
2024/01/24 05:22:02;;;;;;;;;;;;;;;4.03;67.12;100169.63;4435313;32;34622;-86
2024/01/24 05:24:30;;;;;;;;;;;;;;;4.16;66.92;100174.59;4420943;32;34066;-83
2024/01/24 05:26:57;;;;;;;;;;;;;;;3.89;67.58;100181.66;4435103;32;33188;-83
2024/01/24 05:29:25;;;;;;;;;;;;;;;3.85;67.66;100178.06;4435684;32;33764;-82
2024/01/24 05:31:52;;;;;;;;;;;;;;;4.07;67.27;100175.00;4422890;32;34310;-81
2024/01/24 05:34:19;;;;;;;;;;;;;;;4.03;67.51;100185.00;4434520;32;34273;-83
2024/01/24 05:36:47;;;;;;;;;;;;;;;4.11;67.38;100176.91;4437388;32;33493;-85
2024/01/24 05:39:15;;;;;;;;;;;;;;;4.15;67.51;100181.41;4436636;32;34747;-83
2024/01/24 05:41:43;;;;;;;;;;;;;;;4.25;67.19;100177.69;4436609;32;35242;-81
2024/01/24 05:44:10;;;;;;;;;;;;;;;4.36;66.80;100176.56;4432535;32;33167;-83
2024/01/24 05:46:38;;;;;;;;;;;;;;;4.31;66.81;100177.09;4414659;32;34265;-86
2024/01/24 05:49:06;;;;;;;;;;;;;;;4.13;67.39;100183.03;4429139;32;35163;-83
2024/01/24 05:51:33;;;;;;;;;;;;;;;4.14;67.47;100184.78;4415820;32;34505;-83
2024/01/24 05:54:01;;;;;;;;;;;;;;;4.15;67.59;100180.53;4427629;32;33860;-82
2024/01/24 05:56:28;;;;;;;;;;;;;;;4.06;67.73;100174.91;4433288;32;33123;-82
2024/01/24 05:58:55;;;;;;;;;;;;;;;4.01;67.78;100163.50;4432527;32;33728;-83
2024/01/24 06:01:22;;;;;;;;;;;;;;;4.15;67.35;100160.00;4435826;32;34411;-83
2024/01/24 06:03:50;;;;;;;;;;;;;;;4.37;66.65;100173.19;4436718;32;35806;-84
2024/01/24 06:06:18;;;;;;;;;;;;;;;4.30;66.71;100171.09;4436519;32;33695;-84
2024/01/24 06:08:45;;;;;;;;;;;;;;;4.28;66.88;100175.28;4413229;32;34979;-84
2024/01/24 06:11:14;;;;;;;;;;;;;;;4.30;66.93;100175.34;4433747;32;35275;-85
2024/01/24 06:13:42;;;;;;;;;;;;;;;4.37;66.84;100177.44;4437168;32;33816;-85
2024/01/24 06:16:09;;;;;;;;;;;;;;;4.44;66.58;100171.84;4421184;32;34136;-82
2024/01/24 06:18:37;;;;;;;;;;;;;;;4.60;66.03;100163.25;4436728;32;35024;-83
2024/01/24 06:21:04;;;;;;;;;;;;;;;4.39;66.73;100166.47;4436773;32;34458;-84
2024/01/24 06:23:31;;;;;;;;;;;;;;;4.33;66.79;100166.13;4436863;32;35294;-84
2024/01/24 06:25:59;;;;;;;;;;;;;;;4.55;65.99;100155.31;4435547;32;33507;-87
2024/01/24 06:28:26;;;;;;;;;;;;;;;4.09;67.08;100155.44;4414271;32;34258;-84
2024/01/24 06:30:53;;;;;;;;;;;;;;;4.35;66.38;100149.09;4432490;32;33891;-83
2024/01/24 06:33:21;;;;;;;;;;;;;;;4.31;66.43;100143.75;4436476;32;34899;-85
2024/01/24 06:35:48;;;;;;;;;;;;;;;4.41;66.06;100137.41;4436671;32;33394;-84
2024/01/24 06:38:16;;;;;;;;;;;;;;;4.27;66.45;100119.59;4436743;32;34805;-84
2024/01/24 06:40:43;;;;;;;;;;;;;;;4.07;66.36;100105.72;4436401;32;35365;-84
2024/01/24 06:43:14;;;;;;;;;;;;;;;3.92;67.42;100117.72;4436348;32;32546;-84
2024/01/24 06:45:41;;;;;;;;;;;;;;;4.14;66.77;100112.06;4436403;32;33591;-84
2024/01/24 06:48:09;;;;;;;;;;;;;;;4.33;66.32;100107.09;4436372;32;34062;-84
2024/01/24 06:50:36;;;;;;;;;;;;;;;4.59;65.50;100097.31;4422833;32;35262;-84
2024/01/24 06:53:05;;;;;;;;;;;;;;;4.42;66.00;100090.41;4435127;32;34522;-84
2024/01/24 06:55:33;;;;;;;;;;;;;;;4.45;65.95;100088.00;4437040;32;33566;-83
2024/01/24 06:58:00;;;;;;;;;;;;;;;4.21;66.44;100087.59;4436886;32;34008;-83
2024/01/24 07:00:29;;;;;;;;;;;;;;;4.11;66.71;100081.09;4436839;32;34532;-83
2024/01/24 07:02:57;;;;;;;;;;;;;;;4.41;65.97;100080.94;4437019;32;34979;-84
2024/01/24 07:05:24;;;;;;;;;;;;;;;4.09;67.49;100072.41;4436814;32;33096;-83
2024/01/24 07:07:52;;;;;;;;;;;;;;;4.55;65.84;100070.56;4436889;32;34922;-84
2024/01/24 07:10:19;;;;;;;;;;;;;;;4.50;65.95;100064.31;4436740;32;34347;-84
2024/01/24 07:12:46;;;;;;;;;;;;;;;4.47;66.06;100061.59;4436630;32;34286;-83
2024/01/24 07:15:15;;;;;;;;;;;;;;;4.25;66.33;100046.78;4436580;32;34293;-84
2024/01/24 07:17:44;;;;;;;;;;;;;;;4.28;66.57;100051.16;4436728;32;34992;-88
2024/01/24 07:20:11;;;;;;;;;;;;;;;4.50;65.95;100051.47;4422918;32;34189;-83
2024/01/24 07:22:41;;;;;;;;;;;;;;;4.39;66.06;100040.69;4437051;32;34955;-84
2024/01/24 07:25:09;;;;;;;;;;;;;;;4.31;66.49;100054.78;4436977;32;33486;-83
2024/01/24 07:27:36;;;;;;;;;;;;;;;4.13;67.07;100054.72;4436388;32;34289;-84
2024/01/24 07:30:04;;;;;;;;;;;;;;;4.00;67.61;100046.28;4436942;32;33811;-84
2024/01/24 07:32:31;;;;;;;;;;;;;;;3.63;68.95;100052.00;4422916;32;33944;-85
2024/01/24 07:34:59;;;;;;;;;;;;;;;4.22;67.16;100048.31;4422744;32;34189;-84
2024/01/24 07:37:26;;;;;;;;;;;;;;;4.47;66.62;100048.78;4436651;32;34308;-88
2024/01/24 07:39:54;;;;;;;;;;;;;;;4.42;66.79;100039.06;4422887;32;34248;-89
2024/01/24 07:42:22;;;;;;;;;;;;;;;4.33;66.97;100032.66;4435681;32;34038;-86
2024/01/24 07:44:49;;;;;;;;;;;;;;;4.27;67.10;100036.56;4422456;32;33255;-84
2024/01/24 07:47:20;;;;;;;;;;;;;;;4.48;66.39;100032.56;4435363;32;34885;-84
2024/01/24 07:49:47;;;;;;;;;;;;;;;4.30;67.08;100032.47;4435895;32;35106;-84
2024/01/24 07:52:15;;;;;;;;;;;;;;;4.62;66.34;100035.78;4435984;32;34129;-84
2024/01/24 07:55:02;;;;;;;;;;;;;;;4.69;65.69;100034.41;4435230;32;32848;-84
2024/01/24 07:57:29;;;;;;;;;;;;;;;4.71;65.67;100022.56;4435290;32;34261;-87
2024/01/24 07:59:58;;;;;;;;;;;;;;;4.61;66.02;100034.91;4434430;32;34538;-88
2024/01/24 08:02:26;;;;;;;;;;;;;;;4.52;66.67;100033.59;4435025;32;34074;-83
2024/01/24 08:04:53;;;;;;;;;;;;;;;4.80;65.80;100021.28;4425359;32;33127;-84
2024/01/24 08:07:20;;;;;;;;;;;;;;;4.72;66.42;100019.16;4421102;32;34113;-84
2024/01/24 08:09:48;;;;;;;;;;;;;;;4.97;65.84;100028.97;4420932;32;33474;-85
2024/01/24 08:12:16;;;;;;;;;;;;;;;4.98;65.67;100038.44;4395920;32;33740;-89
2024/01/24 08:14:43;;;;;;;;;;;;;;;5.12;65.21;100022.88;4433747;32;33744;-83
2024/01/24 08:17:11;;;;;;;;;;;;;;;5.00;65.37;100035.16;4434813;32;33866;-87
2024/01/24 08:19:38;;;;;;;;;;;;;;;5.13;65.34;100044.31;4436634;32;34486;-82
2024/01/24 08:22:06;;;;;;;;;;;;;;;5.13;65.45;100031.47;4430162;32;34148;-82
2024/01/24 08:24:33;;;;;;;;;;;;;;;5.12;65.29;100019.44;4421243;32;33559;-83
2024/01/24 08:27:01;;;;;;;;;;;;;;;4.97;66.07;100029.84;4432424;32;33883;-85
2024/01/24 08:29:28;;;;;;;;;;;;;;;5.08;66.02;100020.09;4436617;32;34128;-84
2024/01/24 08:32:04;;;;;;;;;;;;;;;5.06;66.01;100008.84;4421999;32;33287;-88
2024/01/24 08:34:34;;;;;;;;;;;;;;;5.25;65.77;100006.34;4422292;32;34227;-86
2024/01/24 08:37:01;;;;;;;;;;;;;;;5.08;66.01;100007.25;4436090;32;34102;-82
2024/01/24 08:39:29;;;;;;;;;;;;;;;4.98;66.45;100010.16;4436334;32;34212;-82
2024/01/24 08:41:56;;;;;;;;;;;;;;;4.85;67.31;100013.84;4421986;32;33438;-82
2024/01/24 08:44:23;;;;;;;;;;;;;;;5.12;66.58;100004.88;4421980;32;32228;-83
2024/01/24 08:46:51;;;;;;;;;;;;;;;4.85;67.85;99996.75;4435971;32;34534;-87
2024/01/24 08:49:18;;;;;;;;;;;;;;;5.08;67.50;100005.56;4436583;32;35161;-83
2024/01/24 08:51:46;;;;;;;;;;;;;;;5.27;66.76;100003.88;4436339;32;33955;-86
2024/01/24 08:54:13;;;;;;;;;;;;;;;5.23;67.04;99991.69;4423979;32;33381;-86
2024/01/24 08:56:41;;;;;;;;;;;;;;;4.96;67.99;99984.38;4437749;32;33992;-83
2024/01/24 08:59:08;;;;;;;;;;;;;;;4.72;69.49;99976.38;4437644;32;34470;-83
2024/01/24 09:01:35;;;;;;;;;;;;;;;4.79;69.33;99969.84;4437886;32;34902;-83
2024/01/24 09:04:03;;;;;;;;;;;;;;;4.93;68.99;99967.97;4437996;32;34226;-83
2024/01/24 09:06:31;;;;;;;;;;;;;;;4.87;69.59;99963.41;4437738;32;33811;-84
2024/01/24 09:08:58;;;;;;;;;;;;;;;4.88;69.35;99966.03;4437730;32;35378;-84
2024/01/24 09:11:26;;;;;;;;;;;;;;;4.91;69.36;99956.72;4437855;32;33587;-87
2024/01/24 09:14:04;;;;;;;;;;;;;;;4.88;69.47;99948.03;4437741;32;33602;-83
2024/01/24 09:16:31;;;;;;;;;;;;;;;4.84;70.10;99945.25;4437661;32;33628;-84
2024/01/24 09:18:58;;;;;;;;;;;;;;;4.46;71.32;99926.31;4434156;32;34471;-83
2024/01/24 09:21:27;;;;;;;;;;;;;;;4.50;71.82;99924.78;4436141;32;33959;-87
2024/01/24 09:23:55;;;;;;;;;;;;;;;4.68;70.67;99927.34;4430387;32;33671;-84
2024/01/24 09:26:22;;;;;;;;;;;;;;;4.50;71.64;99941.06;4413132;32;32547;-85
2024/01/24 09:28:50;;;;;;;;;;;;;;;4.73;70.89;99931.91;4413603;32;33543;-83
2024/01/24 09:31:17;;;;;;;;;;;;;;;4.37;71.78;99925.87;4425410;32;34017;-83
2024/01/24 09:33:44;;;;;;;;;;;;;;;4.28;72.40;99931.44;4421678;32;33469;-82
2024/01/24 09:36:13;;;;;;;;;;;;;;;4.43;72.22;99938.97;4421883;32;34730;-82
2024/01/24 09:38:46;;;;;;;;;;;;;;;4.24;72.75;99885.84;4435806;32;34300;-83
2024/01/24 09:41:20;;;;;;;;;;;;;;;4.44;72.07;99906.53;4435656;32;34326;-83
2024/01/24 09:43:47;;;;;;;;;;;;;;;4.46;71.93;99904.88;4425011;32;34380;-86
2024/01/24 09:46:18;;;;;;;;;;;;;;;4.44;72.17;99902.25;4430369;32;34328;-83
2024/01/24 09:48:45;;;;;;;;;;;;;;;4.35;72.02;99909.50;4421923;32;35165;-88
2024/01/24 09:51:13;;;;;;;;;;;;;;;4.40;71.86;99887.50;4434975;32;34243;-87
2024/01/24 09:53:42;;;;;;;;;;;;;;;4.36;71.97;99889.06;4408090;32;32855;-87
2024/01/24 09:56:09;;;;;;;;;;;;;;;4.54;71.65;99885.59;4422024;32;33910;-82
2024/01/24 09:58:37;;;;;;;;;;;;;;;4.42;72.47;99872.16;4409368;32;35227;-84
2024/01/24 10:01:05;;;;;;;;;;;;;;;4.58;71.62;99864.37;4423193;32;33931;-83
2024/01/24 10:03:32;;;;;;;;;;;;;;;4.61;71.32;99850.00;4423655;32;34000;-82
2024/01/24 10:06:04;;;;;;;;;;;;;;;4.43;71.74;99825.16;4423819;32;34661;-82
2024/01/24 10:08:32;;;;;;;;;;;;;;;4.46;71.38;99812.47;4422949;32;34179;-86
2024/01/24 10:10:59;;;;;;;;;;;;;;;4.48;71.10;99816.00;4423366;32;33487;-82
2024/01/24 10:13:26;;;;;;;;;;;;;;;4.71;70.55;99814.50;4423241;32;33802;-83
2024/01/24 10:15:54;;;;;;;;;;;;;;;4.50;71.09;99816.94;4435735;32;33707;-86
2024/01/24 10:18:23;;;;;;;;;;;;;;;4.57;70.89;99807.00;4437287;32;34112;-83
2024/01/24 10:20:51;;;;;;;;;;;;;;;4.56;70.77;99784.72;4437456;32;33833;-83
2024/01/24 10:23:19;;;;;;;;;;;;;;;4.73;70.23;99782.91;4423060;32;33536;-82
2024/01/24 10:25:47;;;;;;;;;;;;;;;4.72;70.08;99746.91;4415949;32;33359;-86
2024/01/24 10:28:16;;;;;;;;;;;;;;;4.85;69.52;99762.94;4419303;32;33038;-84
2024/01/24 10:30:46;;;;;;;;;;;;;;;4.72;69.76;99757.19;4428829;32;35029;-82
2024/01/24 10:33:13;;;;;;;;;;;;;;;4.97;68.81;99746.31;4419081;32;33540;-84
2024/01/24 10:35:44;;;;;;;;;;;;;;;4.79;69.40;99747.25;4419439;32;34327;-84
2024/01/24 10:38:12;;;;;;;;;;;;;;;4.85;69.30;99755.25;4417997;32;34393;-88
2024/01/24 10:40:39;;;;;;;;;;;;;;;4.94;68.80;99752.19;4429842;32;34216;-84
2024/01/24 10:43:12;;;;;;;;;;;;;;;4.77;69.00;99742.84;4428108;32;34087;-84
2024/01/24 10:45:45;;;;;;;;;;;;;;;4.93;68.26;99734.16;4427514;32;34052;-86
2024/01/24 10:48:13;;;;;;;;;;;;;;;4.73;69.23;99728.09;4419715;32;35187;-84
2024/01/24 10:50:40;;;;;;;;;;;;;;;4.47;69.97;99727.81;4418911;32;34083;-83
2024/01/24 10:53:14;;;;;;;;;;;;;;;4.60;69.45;99729.25;4419316;32;33422;-88
2024/01/24 10:55:41;;;;;;;;;;;;;;;4.72;69.30;99723.78;4428723;32;34619;-82
2024/01/24 10:58:10;;;;;;;;;;;;;;;4.79;69.19;99721.56;4433442;32;35633;-83
2024/01/24 11:00:39;;;;;;;;;;;;;;;4.64;69.14;99718.31;4437324;32;34565;-84
2024/01/24 11:03:07;;;;;;;;;;;;;;;4.76;68.49;99703.44;4423487;32;33435;-82
2024/01/24 11:05:43;;;;;;;;;;;;;;;5.01;67.60;99678.84;4422941;32;34923;-83
2024/01/24 11:08:13;;;;;;;;;;;;;;;4.84;67.98;99681.53;4423088;32;34358;-83
2024/01/24 11:10:41;;;;;;;;;;;;;;;4.77;67.81;99670.91;4422768;32;33450;-85
2024/01/24 11:13:08;;;;;;;;;;;;;;;4.76;68.37;99659.78;4422338;32;34289;-81
2024/01/24 11:15:36;;;;;;;;;;;;;;;4.78;68.09;99650.47;4422962;32;34095;-84
2024/01/24 11:18:23;;;;;;;;;;;;;;;4.82;68.34;99639.50;4423251;32;33973;-84
2024/01/24 11:20:55;;;;;;;;;;;;;;;4.82;68.20;99624.09;4422749;32;34075;-84
2024/01/24 11:23:35;;;;;;;;;;;;;;;5.10;67.16;99614.97;4436750;32;33332;-87
2024/01/24 11:26:02;;;;;;;;;;;;;;;4.94;67.23;99625.41;4421621;32;33717;-84
2024/01/24 11:28:30;;;;;;;;;;;;;;;5.10;66.99;99618.41;4423202;32;34916;-82
2024/01/24 11:30:57;;;;;;;;;;;;;;;4.98;67.30;99624.72;4423724;32;33468;-87
2024/01/24 11:33:25;;;;;;;;;;;;;;;5.05;67.27;99608.75;4434632;32;33955;-83
2024/01/24 11:35:53;;;;;;;;;;;;;;;5.08;67.39;99583.19;4411049;32;33957;-87
2024/01/24 11:38:22;;;;;;;;;;;;;;;5.43;66.47;99576.91;4395913;32;33789;-83
2024/01/24 11:41:02;;;;;;;;;;;;;;;5.11;67.32;99557.59;4421511;32;34952;-82
2024/01/24 11:43:32;;;;;;;;;;;;;;;5.41;65.89;99533.94;4436110;32;33187;-82
2024/01/24 11:46:07;;;;;;;;;;;;;;;5.36;66.32;99554.34;4432946;32;35140;-83
2024/01/24 11:48:37;;;;;;;;;;;;;;;5.44;65.91;99544.34;4421021;32;34831;-83
2024/01/24 11:51:11;;;;;;;;;;;;;;;5.73;65.01;99548.06;4387225;32;35348;-85
2024/01/24 11:53:38;;;;;;;;;;;;;;;5.49;65.18;99558.25;4404706;32;33578;-83
2024/01/24 11:56:14;;;;;;;;;;;;;;;5.59;64.90;99562.94;4417209;32;34838;-86
2024/01/24 11:58:41;;;;;;;;;;;;;;;5.54;65.09;99554.19;4404605;32;34949;-85
2024/01/24 12:01:09;;;;;;;;;;;;;;;5.48;64.86;99577.94;4405466;32;33899;-87
2024/01/24 12:03:37;;;;;;;;;;;;;;;5.69;64.53;99590.78;4403623;32;33283;-83
2024/01/24 12:06:04;;;;;;;;;;;;;;;5.61;64.92;99584.47;4401722;32;34245;-86
2024/01/24 12:08:32;;;;;;;;;;;;;;;5.89;64.07;99575.22;4403569;32;35164;-85
2024/01/24 12:10:59;;;;;;;;;;;;;;;5.96;63.77;99572.09;4403858;32;34156;-87
2024/01/24 12:13:27;;;;;;;;;;;;;;;6.11;63.15;99582.97;4404780;32;33300;-82
2024/01/24 12:15:58;;;;;;;;;;;;;;;5.81;63.92;99577.50;4401783;32;33840;-87
2024/01/24 12:18:27;;;;;;;;;;;;;;;5.84;63.99;99563.06;4402567;32;34087;-82
2024/01/24 12:20:55;;;;;;;;;;;;;;;6.17;63.19;99566.84;4397738;32;34262;-87
2024/01/24 12:23:27;;;;;;;;;;;;;;;6.22;63.29;99581.66;4399573;32;33100;-86
2024/01/24 12:25:55;;;;;;;;;;;;;;;5.85;64.25;99569.97;4401605;32;33806;-86
2024/01/24 12:28:23;;;;;;;;;;;;;;;6.16;64.11;99572.84;4403672;32;34205;-89
2024/01/24 12:30:52;;;;;;;;;;;;;;;6.29;64.00;99573.34;4403135;32;34952;-86
2024/01/24 12:33:20;;;;;;;;;;;;;;;6.52;63.44;99571.59;4403030;32;33484;-82
2024/01/24 12:35:48;;;;;;;;;;;;;;;6.48;64.34;99574.00;4405612;32;34823;-86
2024/01/24 12:38:17;;;;;;;;;;;;;;;6.45;64.39;99579.06;4405568;32;35664;-82
2024/01/24 12:40:51;;;;;;;;;;;;;;;6.68;63.90;99588.47;4399496;32;35240;-82
2024/01/24 12:43:22;;;;;;;;;;;;;;;6.50;64.33;99557.78;4390359;32;33611;-82
2024/01/24 12:45:51;;;;;;;;;;;;;;;6.40;65.02;99549.66;4389095;32;34265;-82
2024/01/24 12:48:19;;;;;;;;;;;;;;;6.70;63.41;99544.69;4389989;32;35201;-82
2024/01/24 12:50:51;;;;;;;;;;;;;;;6.68;63.43;99546.38;4417409;32;33941;-89
2024/01/24 12:53:20;;;;;;;;;;;;;;;6.79;63.61;99540.75;4419239;32;33202;-83
2024/01/24 12:55:47;;;;;;;;;;;;;;;6.89;62.75;99530.72;4420560;32;34946;-86